sensor_id;sensor_type;location;lat;lon;timestamp;pressure;altitude;pressure_sealevel;temperature;humidity
12636;BME280;6383;50.830;7.210;2022-09-12T00:00:05;100994.03;;;18.13;68.11
12636;BME280;6383;50.830;7.210;2022-09-12T00:02:36;100996.94;;;18.16;68.06
12636;BME280;6383;50.830;7.210;2022-09-12T00:05:08;100991.09;;;18.18;67.91
12636;BME280;6383;50.830;7.210;2022-09-12T00:07:40;100986.38;;;18.18;66.95
12636;BME280;6383;50.830;7.210;2022-09-12T00:10:09;100987.06;;;18.15;67.27
12636;BME280;6383;50.830;7.210;2022-09-12T00:12:42;100980.28;;;18.13;66.82
12636;BME280;6383;50.830;7.210;2022-09-12T00:15:47;100982.56;;;18.11;67.30
12636;BME280;6383;50.830;7.210;2022-09-12T00:32:57;100978.41;;;17.92;67.53
12636;BME280;6383;50.830;7.210;2022-09-12T00:36:44;100978.28;;;17.89;67.53
12636;BME280;6383;50.830;7.210;2022-09-12T00:45:59;100967.59;;;17.87;67.21
12636;BME280;6383;50.830;7.210;2022-09-12T00:52:57;100962.56;;;17.89;67.14
12636;BME280;6383;50.830;7.210;2022-09-12T00:56:06;100950.72;;;17.89;67.10
12636;BME280;6383;50.830;7.210;2022-09-12T00:59:15;100956.91;;;17.86;67.62
12636;BME280;6383;50.830;7.210;2022-09-12T01:05:54;100952.66;;;17.76;68.03
12636;BME280;6383;50.830;7.210;2022-09-12T01:10:47;100957.56;;;17.71;67.82
12636;BME280;6383;50.830;7.210;2022-09-12T01:42:50;100940.16;;;17.58;67.04
12636;BME280;6383;50.830;7.210;2022-09-12T01:45:17;100939.22;;;17.54;67.21
12636;BME280;6383;50.830;7.210;2022-09-12T01:48:45;100933.59;;;17.50;67.94
12636;BME280;6383;50.830;7.210;2022-09-12T01:55:54;100935.06;;;17.48;67.13
12636;BME280;6383;50.830;7.210;2022-09-12T01:58:42;100933.47;;;17.47;67.70
12636;BME280;6383;50.830;7.210;2022-09-12T02:01:28;100929.44;;;17.44;67.39
12636;BME280;6383;50.830;7.210;2022-09-12T02:04:04;100927.03;;;17.43;67.12
12636;BME280;6383;50.830;7.210;2022-09-12T02:10:42;100920.09;;;17.37;67.54
12636;BME280;6383;50.830;7.210;2022-09-12T02:13:23;100921.72;;;17.38;67.57
12636;BME280;6383;50.830;7.210;2022-09-12T02:16:03;100924.03;;;17.36;66.59
12636;BME280;6383;50.830;7.210;2022-09-12T02:19:04;100923.75;;;17.28;67.44
12636;BME280;6383;50.830;7.210;2022-09-12T02:21:39;100925.69;;;17.28;67.24
12636;BME280;6383;50.830;7.210;2022-09-12T02:24:37;100919.38;;;17.27;67.02
12636;BME280;6383;50.830;7.210;2022-09-12T02:27:23;100917.44;;;17.28;67.71
12636;BME280;6383;50.830;7.210;2022-09-12T02:33:30;100921.94;;;17.33;66.45
12636;BME280;6383;50.830;7.210;2022-09-12T02:37:58;100916.44;;;17.33;67.22
12636;BME280;6383;50.830;7.210;2022-09-12T02:39:59;100918.72;;;17.31;67.17
12636;BME280;6383;50.830;7.210;2022-09-12T02:42:56;100915.81;;;17.27;66.79
12636;BME280;6383;50.830;7.210;2022-09-12T02:45:40;100909.03;;;17.24;66.53
12636;BME280;6383;50.830;7.210;2022-09-12T02:48:26;100905.38;;;17.20;66.88
12636;BME280;6383;50.830;7.210;2022-09-12T02:51:02;100903.28;;;17.17;66.84
12636;BME280;6383;50.830;7.210;2022-09-12T02:53:35;100904.28;;;17.13;67.10
12636;BME280;6383;50.830;7.210;2022-09-12T02:56:10;100900.25;;;17.10;66.71
12636;BME280;6383;50.830;7.210;2022-09-12T02:58:44;100901.88;;;17.11;66.95
12636;BME280;6383;50.830;7.210;2022-09-12T03:01:35;100896.03;;;17.13;66.70
12636;BME280;6383;50.830;7.210;2022-09-12T03:04:27;100899.25;;;17.15;66.58
12636;BME280;6383;50.830;7.210;2022-09-12T03:07:10;100887.78;;;17.13;66.82
12636;BME280;6383;50.830;7.210;2022-09-12T03:10:02;100892.00;;;17.10;66.33
12636;BME280;6383;50.830;7.210;2022-09-12T03:12:51;100888.78;;;17.08;66.74
12636;BME280;6383;50.830;7.210;2022-09-12T03:15:38;100888.69;;;17.05;66.55
12636;BME280;6383;50.830;7.210;2022-09-12T03:18:19;100882.72;;;17.03;67.01
12636;BME280;6383;50.830;7.210;2022-09-12T03:21:01;100889.81;;;17.04;67.33
12636;BME280;6383;50.830;7.210;2022-09-12T03:23:33;100889.34;;;17.02;66.57
12636;BME280;6383;50.830;7.210;2022-09-12T03:26:10;100897.25;;;17.03;67.63
12636;BME280;6383;50.830;7.210;2022-09-12T03:28:47;100897.25;;;17.03;66.70
12636;BME280;6383;50.830;7.210;2022-09-12T03:31:18;100897.13;;;17.00;66.47
12636;BME280;6383;50.830;7.210;2022-09-12T03:33:49;100897.78;;;16.97;67.07
12636;BME280;6383;50.830;7.210;2022-09-12T03:36:20;100896.03;;;16.92;66.73
12636;BME280;6383;50.830;7.210;2022-09-12T03:38:51;100894.31;;;16.87;66.67
12636;BME280;6383;50.830;7.210;2022-09-12T03:41:20;100898.19;;;16.86;66.41
12636;BME280;6383;50.830;7.210;2022-09-12T03:43:53;100894.97;;;16.84;66.82
12636;BME280;6383;50.830;7.210;2022-09-12T03:46:24;100896.44;;;16.82;67.08
12636;BME280;6383;50.830;7.210;2022-09-12T03:48:54;100895.13;;;16.88;66.57
12636;BME280;6383;50.830;7.210;2022-09-12T03:51:24;100907.72;;;16.89;66.40
12636;BME280;6383;50.830;7.210;2022-09-12T03:53:56;100907.72;;;16.89;67.33
12636;BME280;6383;50.830;7.210;2022-09-12T03:56:29;100898.34;;;16.90;66.95
12636;BME280;6383;50.830;7.210;2022-09-12T03:59:00;100896.41;;;16.90;66.83
12636;BME280;6383;50.830;7.210;2022-09-12T04:01:27;100895.25;;;16.91;66.90
12636;BME280;6383;50.830;7.210;2022-09-12T04:04:01;100898.34;;;16.90;67.30
12636;BME280;6383;50.830;7.210;2022-09-12T04:06:30;100900.63;;;16.88;66.86
12636;BME280;6383;50.830;7.210;2022-09-12T04:08:57;100896.25;;;16.87;66.31
12636;BME280;6383;50.830;7.210;2022-09-12T04:11:27;100888.66;;;16.84;66.80
12636;BME280;6383;50.830;7.210;2022-09-12T04:13:56;100889.00;;;16.82;66.56
12636;BME280;6383;50.830;7.210;2022-09-12T04:16:25;100888.03;;;16.78;67.04
12636;BME280;6383;50.830;7.210;2022-09-12T04:18:54;100881.41;;;16.79;66.88
12636;BME280;6383;50.830;7.210;2022-09-12T04:21:28;100885.44;;;16.82;67.32
12636;BME280;6383;50.830;7.210;2022-09-12T04:24:03;100878.34;;;16.81;67.45
12636;BME280;6383;50.830;7.210;2022-09-12T04:26:32;100877.53;;;16.80;67.14
12636;BME280;6383;50.830;7.210;2022-09-12T04:28:59;100874.31;;;16.78;66.77
12636;BME280;6383;50.830;7.210;2022-09-12T04:31:27;100884.50;;;16.78;66.71
12636;BME280;6383;50.830;7.210;2022-09-12T04:33:58;100878.56;;;16.76;66.85
12636;BME280;6383;50.830;7.210;2022-09-12T04:36:32;100883.25;;;16.75;67.37
12636;BME280;6383;50.830;7.210;2022-09-12T04:39:03;100874.19;;;16.75;67.26
12636;BME280;6383;50.830;7.210;2022-09-12T04:41:34;100876.13;;;16.74;66.78
12636;BME280;6383;50.830;7.210;2022-09-12T04:44:05;100874.84;;;16.72;67.78
12636;BME280;6383;50.830;7.210;2022-09-12T04:46:36;100875.66;;;16.72;67.70
12636;BME280;6383;50.830;7.210;2022-09-12T04:49:06;100876.78;;;16.71;66.77
12636;BME280;6383;50.830;7.210;2022-09-12T04:51:38;100870.81;;;16.69;66.51
12636;BME280;6383;50.830;7.210;2022-09-12T04:54:13;100871.16;;;16.68;66.42
12636;BME280;6383;50.830;7.210;2022-09-12T04:56:44;100869.88;;;16.65;66.77
12636;BME280;6383;50.830;7.210;2022-09-12T04:59:15;100867.75;;;16.62;66.70
12636;BME280;6383;50.830;7.210;2022-09-12T05:01:45;100872.81;;;16.60;67.10
12636;BME280;6383;50.830;7.210;2022-09-12T05:04:15;100860.53;;;16.57;66.51
12636;BME280;6383;50.830;7.210;2022-09-12T05:06:45;100861.81;;;16.60;66.84
12636;BME280;6383;50.830;7.210;2022-09-12T05:09:15;100870.38;;;16.58;66.38
12636;BME280;6383;50.830;7.210;2022-09-12T05:11:44;100856.75;;;16.62;66.85
12636;BME280;6383;50.830;7.210;2022-09-12T05:14:13;100852.56;;;16.65;67.71
12636;BME280;6383;50.830;7.210;2022-09-12T05:16:43;100855.78;;;16.67;67.27
12636;BME280;6383;50.830;7.210;2022-09-12T05:19:12;100853.53;;;16.69;67.10
12636;BME280;6383;50.830;7.210;2022-09-12T05:21:42;100849.63;;;16.70;67.60
12636;BME280;6383;50.830;7.210;2022-09-12T05:24:12;100854.81;;;16.71;67.53
12636;BME280;6383;50.830;7.210;2022-09-12T05:26:41;100852.06;;;16.71;68.02
12636;BME280;6383;50.830;7.210;2022-09-12T05:29:10;100850.91;;;16.72;68.42
12636;BME280;6383;50.830;7.210;2022-09-12T05:31:39;100855.28;;;16.73;68.05
12636;BME280;6383;50.830;7.210;2022-09-12T05:34:09;100853.00;;;16.75;67.71
12636;BME280;6383;50.830;7.210;2022-09-12T05:36:39;100852.69;;;16.77;68.04
12636;BME280;6383;50.830;7.210;2022-09-12T05:39:08;100860.91;;;16.77;67.72
12636;BME280;6383;50.830;7.210;2022-09-12T05:41:39;100853.13;;;16.79;68.16
12636;BME280;6383;50.830;7.210;2022-09-12T05:44:10;100861.03;;;16.80;68.64
12636;BME280;6383;50.830;7.210;2022-09-12T05:46:42;100858.09;;;16.85;69.38
12636;BME280;6383;50.830;7.210;2022-09-12T05:49:12;100859.03;;;16.89;69.40
12636;BME280;6383;50.830;7.210;2022-09-12T05:51:43;100854.34;;;16.90;68.61
12636;BME280;6383;50.830;7.210;2022-09-12T05:54:15;100860.28;;;16.92;69.22
12636;BME280;6383;50.830;7.210;2022-09-12T05:56:46;100858.34;;;16.92;68.45
12636;BME280;6383;50.830;7.210;2022-09-12T05:59:17;100868.69;;;16.96;69.06
12636;BME280;6383;50.830;7.210;2022-09-12T06:01:49;100872.03;;;17.01;69.05
12636;BME280;6383;50.830;7.210;2022-09-12T06:04:19;100870.69;;;17.07;69.49
12636;BME280;6383;50.830;7.210;2022-09-12T06:06:51;100877.94;;;17.12;69.77
12636;BME280;6383;50.830;7.210;2022-09-12T06:09:31;100870.63;;;17.16;70.39
12636;BME280;6383;50.830;7.210;2022-09-12T06:12:07;100870.44;;;17.21;70.59
12636;BME280;6383;50.830;7.210;2022-09-12T06:14:37;100872.16;;;17.25;70.16
12636;BME280;6383;50.830;7.210;2022-09-12T06:17:12;100879.41;;;17.30;70.22
12636;BME280;6383;50.830;7.210;2022-09-12T06:19:45;100880.34;;;17.34;70.51
12636;BME280;6383;50.830;7.210;2022-09-12T06:22:36;100878.16;;;17.40;70.56
12636;BME280;6383;50.830;7.210;2022-09-12T06:26:08;100877.63;;;17.46;71.06
12636;BME280;6383;50.830;7.210;2022-09-12T06:29:40;100881.41;;;17.54;71.41
12636;BME280;6383;50.830;7.210;2022-09-12T06:33:19;100880.53;;;17.62;72.15
12636;BME280;6383;50.830;7.210;2022-09-12T06:42:26;100871.31;;;17.79;71.82
12636;BME280;6383;50.830;7.210;2022-09-12T06:45:46;100878.66;;;17.87;72.47
12636;BME280;6383;50.830;7.210;2022-09-12T06:48:10;100877.31;;;17.93;71.86
12636;BME280;6383;50.830;7.210;2022-09-12T06:51:01;100882.25;;;18.00;72.05
12636;BME280;6383;50.830;7.210;2022-09-12T06:53:35;100876.53;;;18.05;72.38
12636;BME280;6383;50.830;7.210;2022-09-12T06:56:13;100879.88;;;18.10;72.67
12636;BME280;6383;50.830;7.210;2022-09-12T06:58:42;100872.97;;;18.16;73.22
12636;BME280;6383;50.830;7.210;2022-09-12T07:01:14;100877.09;;;18.22;73.10
12636;BME280;6383;50.830;7.210;2022-09-12T07:03:48;100869.84;;;18.30;73.75
12636;BME280;6383;50.830;7.210;2022-09-12T07:06:19;100864.94;;;18.36;73.71
12636;BME280;6383;50.830;7.210;2022-09-12T07:08:49;100865.16;;;18.43;72.74
12636;BME280;6383;50.830;7.210;2022-09-12T07:11:21;100862.28;;;18.51;73.36
12636;BME280;6383;50.830;7.210;2022-09-12T07:13:52;100868.84;;;18.59;73.38
12636;BME280;6383;50.830;7.210;2022-09-12T07:16:22;100869.53;;;18.68;73.89
12636;BME280;6383;50.830;7.210;2022-09-12T07:18:53;100871.69;;;18.75;73.89
12636;BME280;6383;50.830;7.210;2022-09-12T07:21:23;100864.91;;;18.84;73.70
12636;BME280;6383;50.830;7.210;2022-09-12T07:23:52;100865.09;;;18.91;73.29
12636;BME280;6383;50.830;7.210;2022-09-12T07:26:26;100865.66;;;18.97;73.15
12636;BME280;6383;50.830;7.210;2022-09-12T07:28:57;100871.38;;;19.04;73.44
12636;BME280;6383;50.830;7.210;2022-09-12T07:31:28;100868.84;;;19.11;72.78
12636;BME280;6383;50.830;7.210;2022-09-12T07:33:57;100870.53;;;19.16;72.95
12636;BME280;6383;50.830;7.210;2022-09-12T07:36:26;100873.16;;;19.24;72.79
12636;BME280;6383;50.830;7.210;2022-09-12T07:38:57;100879.59;;;19.28;73.31
12636;BME280;6383;50.830;7.210;2022-09-12T07:41:28;100876.56;;;19.33;72.82
12636;BME280;6383;50.830;7.210;2022-09-12T07:43:59;100877.47;;;19.37;72.62
12636;BME280;6383;50.830;7.210;2022-09-12T07:46:30;100872.13;;;19.45;72.20
12636;BME280;6383;50.830;7.210;2022-09-12T07:48:59;100877.44;;;19.50;73.44
12636;BME280;6383;50.830;7.210;2022-09-12T07:51:29;100871.75;;;19.58;72.33
12636;BME280;6383;50.830;7.210;2022-09-12T07:53:58;100867.91;;;19.63;71.36
12636;BME280;6383;50.830;7.210;2022-09-12T07:56:27;100871.94;;;19.65;70.99
12636;BME280;6383;50.830;7.210;2022-09-12T07:58:57;100876.66;;;19.65;71.02
12636;BME280;6383;50.830;7.210;2022-09-12T08:01:26;100873.66;;;19.70;70.84
12636;BME280;6383;50.830;7.210;2022-09-12T08:03:57;100876.13;;;19.75;70.38
12636;BME280;6383;50.830;7.210;2022-09-12T08:06:28;100876.69;;;19.81;70.86
12636;BME280;6383;50.830;7.210;2022-09-12T08:09:03;100874.91;;;19.88;70.69
12636;BME280;6383;50.830;7.210;2022-09-12T08:11:34;100880.25;;;19.97;70.33
12636;BME280;6383;50.830;7.210;2022-09-12T08:14:03;100881.16;;;20.01;69.64
12636;BME280;6383;50.830;7.210;2022-09-12T08:16:33;100880.16;;;20.09;69.36
12636;BME280;6383;50.830;7.210;2022-09-12T08:19:02;100881.16;;;20.17;69.84
12636;BME280;6383;50.830;7.210;2022-09-12T08:21:32;100876.59;;;20.24;69.64
12636;BME280;6383;50.830;7.210;2022-09-12T08:24:02;100879.19;;;20.33;69.71
12636;BME280;6383;50.830;7.210;2022-09-12T08:26:32;100867.88;;;20.38;68.42
12636;BME280;6383;50.830;7.210;2022-09-12T08:29:02;100875.19;;;20.46;68.80
12636;BME280;6383;50.830;7.210;2022-09-12T08:31:31;100876.13;;;20.54;68.56
12636;BME280;6383;50.830;7.210;2022-09-12T08:34:04;100872.00;;;20.63;68.81
12636;BME280;6383;50.830;7.210;2022-09-12T08:36:34;100868.59;;;20.70;68.47
12636;BME280;6383;50.830;7.210;2022-09-12T08:39:05;100867.59;;;20.78;67.75
12636;BME280;6383;50.830;7.210;2022-09-12T08:41:37;100868.19;;;20.87;67.78
12636;BME280;6383;50.830;7.210;2022-09-12T08:44:18;100862.44;;;20.96;67.51
12636;BME280;6383;50.830;7.210;2022-09-12T08:47:08;100859.03;;;21.02;67.46
12636;BME280;6383;50.830;7.210;2022-09-12T08:49:56;100869.16;;;21.14;66.84
12636;BME280;6383;50.830;7.210;2022-09-12T08:52:33;100861.28;;;21.16;65.97
12636;BME280;6383;50.830;7.210;2022-09-12T08:55:05;100873.28;;;21.20;65.37
12636;BME280;6383;50.830;7.210;2022-09-12T08:57:40;100866.91;;;20.65;68.83
12636;BME280;6383;50.830;7.210;2022-09-12T09:00:12;100865.91;;;20.38;69.64
12636;BME280;6383;50.830;7.210;2022-09-12T09:03:03;100877.94;;;20.15;70.91
12636;BME280;6383;50.830;7.210;2022-09-12T09:05:46;100869.75;;;20.02;71.61
12636;BME280;6383;50.830;7.210;2022-09-12T09:08:29;100860.81;;;19.93;71.85
12636;BME280;6383;50.830;7.210;2022-09-12T09:11:10;100856.75;;;19.87;72.45
12636;BME280;6383;50.830;7.210;2022-09-12T09:13:57;100862.06;;;19.80;72.29
12636;BME280;6383;50.830;7.210;2022-09-12T09:16:49;100862.06;;;19.80;73.35
12636;BME280;6383;50.830;7.210;2022-09-12T09:19:23;100861.25;;;19.80;74.24
12636;BME280;6383;50.830;7.210;2022-09-12T09:21:58;100862.06;;;19.80;74.54
12636;BME280;6383;50.830;7.210;2022-09-12T09:24:32;100853.44;;;19.82;74.77
12636;BME280;6383;50.830;7.210;2022-09-12T09:27:10;100855.84;;;19.83;74.40
12636;BME280;6383;50.830;7.210;2022-09-12T09:29:42;100846.50;;;19.88;74.31
12636;BME280;6383;50.830;7.210;2022-09-12T09:32:17;100842.19;;;19.90;74.85
12636;BME280;6383;50.830;7.210;2022-09-12T09:34:46;100836.41;;;19.95;74.25
12636;BME280;6383;50.830;7.210;2022-09-12T09:37:19;100827.88;;;20.00;74.42
12636;BME280;6383;50.830;7.210;2022-09-12T09:39:56;100834.69;;;20.06;73.87
12636;BME280;6383;50.830;7.210;2022-09-12T09:42:36;100827.75;;;20.13;74.17
12636;BME280;6383;50.830;7.210;2022-09-12T09:45:13;100827.91;;;20.20;73.83
12636;BME280;6383;50.830;7.210;2022-09-12T09:47:44;100825.31;;;20.27;73.59
12636;BME280;6383;50.830;7.210;2022-09-12T09:50:15;100823.91;;;20.33;73.10
12636;BME280;6383;50.830;7.210;2022-09-12T09:52:46;100813.03;;;20.40;73.38
12636;BME280;6383;50.830;7.210;2022-09-12T09:55:18;100817.53;;;20.48;72.37
12636;BME280;6383;50.830;7.210;2022-09-12T09:57:48;100818.88;;;20.54;71.84
12636;BME280;6383;50.830;7.210;2022-09-12T10:00:24;100817.06;;;20.62;71.27
12636;BME280;6383;50.830;7.210;2022-09-12T10:03:03;100812.84;;;20.68;70.42
12636;BME280;6383;50.830;7.210;2022-09-12T10:05:43;100813.06;;;20.78;70.72
12636;BME280;6383;50.830;7.210;2022-09-12T10:08:20;100804.13;;;20.85;70.25
12636;BME280;6383;50.830;7.210;2022-09-12T10:10:55;100809.88;;;20.96;70.09
12636;BME280;6383;50.830;7.210;2022-09-12T10:13:37;100809.59;;;21.01;69.05
12636;BME280;6383;50.830;7.210;2022-09-12T10:16:17;100802.28;;;21.12;68.95
12636;BME280;6383;50.830;7.210;2022-09-12T10:18:48;100786.34;;;21.25;68.71
12636;BME280;6383;50.830;7.210;2022-09-12T10:21:27;100796.03;;;21.34;68.84
12636;BME280;6383;50.830;7.210;2022-09-12T10:24:04;100798.19;;;21.44;68.30
12636;BME280;6383;50.830;7.210;2022-09-12T10:26:39;100795.97;;;21.54;68.21
12636;BME280;6383;50.830;7.210;2022-09-12T10:29:13;100795.75;;;21.62;66.78
12636;BME280;6383;50.830;7.210;2022-09-12T10:31:48;100785.13;;;21.68;65.13
12636;BME280;6383;50.830;7.210;2022-09-12T10:34:22;100793.66;;;21.78;65.01
12636;BME280;6383;50.830;7.210;2022-09-12T10:37:01;100788.22;;;21.86;64.96
12636;BME280;6383;50.830;7.210;2022-09-12T10:39:31;100784.75;;;21.92;63.68
12636;BME280;6383;50.830;7.210;2022-09-12T10:42:03;100771.03;;;21.99;64.02
12636;BME280;6383;50.830;7.210;2022-09-12T10:44:33;100763.63;;;22.07;61.68
12636;BME280;6383;50.830;7.210;2022-09-12T10:47:21;100769.25;;;22.10;62.64
12636;BME280;6383;50.830;7.210;2022-09-12T10:49:51;100769.75;;;22.20;61.19
12636;BME280;6383;50.830;7.210;2022-09-12T10:52:22;100764.31;;;22.27;61.48
12636;BME280;6383;50.830;7.210;2022-09-12T10:54:56;100758.50;;;22.35;60.82
12636;BME280;6383;50.830;7.210;2022-09-12T10:57:55;100755.78;;;22.39;61.65
12636;BME280;6383;50.830;7.210;2022-09-12T11:00:29;100757.88;;;22.49;60.55
12636;BME280;6383;50.830;7.210;2022-09-12T11:03:21;100758.38;;;22.55;61.22
12636;BME280;6383;50.830;7.210;2022-09-12T11:06:01;100762.81;;;22.63;59.87
12636;BME280;6383;50.830;7.210;2022-09-12T11:08:56;100750.59;;;22.67;60.32
12636;BME280;6383;50.830;7.210;2022-09-12T11:12:07;100739.94;;;22.73;59.92
12636;BME280;6383;50.830;7.210;2022-09-12T11:14:56;100737.72;;;22.82;59.71
12636;BME280;6383;50.830;7.210;2022-09-12T11:17:49;100735.44;;;22.91;58.42
12636;BME280;6383;50.830;7.210;2022-09-12T11:20:41;100734.75;;;23.01;56.39
12636;BME280;6383;50.830;7.210;2022-09-12T11:23:43;100730.47;;;23.07;57.14
12636;BME280;6383;50.830;7.210;2022-09-12T11:26:59;100717.84;;;23.17;55.61
12636;BME280;6383;50.830;7.210;2022-09-12T11:36:58;100706.06;;;23.31;54.67
12636;BME280;6383;50.830;7.210;2022-09-12T11:39:38;100710.16;;;23.40;53.38
12636;BME280;6383;50.830;7.210;2022-09-12T11:45:01;100708.59;;;23.43;51.28
12636;BME280;6383;50.830;7.210;2022-09-12T11:48:50;100707.94;;;23.57;51.23
12636;BME280;6383;50.830;7.210;2022-09-12T11:51:49;100695.28;;;23.66;51.37
12636;BME280;6383;50.830;7.210;2022-09-12T11:54:23;100698.13;;;23.77;51.14
12636;BME280;6383;50.830;7.210;2022-09-12T11:56:57;100693.66;;;23.62;53.03
12636;BME280;6383;50.830;7.210;2022-09-12T11:59:31;100703.97;;;23.61;52.42
12636;BME280;6383;50.830;7.210;2022-09-12T12:02:02;100693.06;;;23.86;51.04
12636;BME280;6383;50.830;7.210;2022-09-12T12:04:34;100687.81;;;23.74;53.27
12636;BME280;6383;50.830;7.210;2022-09-12T12:07:06;100691.56;;;23.99;49.82
12636;BME280;6383;50.830;7.210;2022-09-12T12:09:44;100688.44;;;24.11;48.80
12636;BME280;6383;50.830;7.210;2022-09-12T12:12:18;100678.53;;;24.21;49.28
12636;BME280;6383;50.830;7.210;2022-09-12T12:14:51;100676.25;;;24.30;48.49
12636;BME280;6383;50.830;7.210;2022-09-12T12:17:22;100679.84;;;24.38;49.25
12636;BME280;6383;50.830;7.210;2022-09-12T12:19:58;100676.69;;;24.43;47.38
12636;BME280;6383;50.830;7.210;2022-09-12T12:22:28;100674.34;;;24.48;47.45
12636;BME280;6383;50.830;7.210;2022-09-12T12:25:13;100668.78;;;24.52;48.33
12636;BME280;6383;50.830;7.210;2022-09-12T12:27:55;100678.34;;;24.58;48.48
12636;BME280;6383;50.830;7.210;2022-09-12T12:33:54;100674.75;;;24.57;48.12
12636;BME280;6383;50.830;7.210;2022-09-12T12:36:35;100680.75;;;24.67;46.25
12636;BME280;6383;50.830;7.210;2022-09-12T12:46:07;100653.31;;;24.65;46.51
12636;BME280;6383;50.830;7.210;2022-09-12T12:49:01;100648.16;;;24.71;45.99
12636;BME280;6383;50.830;7.210;2022-09-12T12:51:41;100638.25;;;24.77;45.08
12636;BME280;6383;50.830;7.210;2022-09-12T12:57:27;100640.63;;;24.85;44.54
12636;BME280;6383;50.830;7.210;2022-09-12T13:00:00;100631.09;;;24.90;44.58
12636;BME280;6383;50.830;7.210;2022-09-12T13:02:32;100631.91;;;24.94;43.80
12636;BME280;6383;50.830;7.210;2022-09-12T13:05:04;100621.56;;;24.98;43.53
12636;BME280;6383;50.830;7.210;2022-09-12T13:07:37;100615.59;;;25.00;43.73
12636;BME280;6383;50.830;7.210;2022-09-12T13:10:20;100617.59;;;24.99;43.74
12636;BME280;6383;50.830;7.210;2022-09-12T13:12:51;100609.66;;;25.05;44.07
12636;BME280;6383;50.830;7.210;2022-09-12T13:15:46;100607.66;;;25.02;44.76
12636;BME280;6383;50.830;7.210;2022-09-12T13:18:21;100604.84;;;25.09;43.53
12636;BME280;6383;50.830;7.210;2022-09-12T13:20:58;100599.28;;;25.12;44.34
12636;BME280;6383;50.830;7.210;2022-09-12T13:23:31;100595.72;;;25.15;43.79
12636;BME280;6383;50.830;7.210;2022-09-12T13:26:01;100594.94;;;25.18;43.93
12636;BME280;6383;50.830;7.210;2022-09-12T13:28:30;100593.75;;;25.19;42.60
12636;BME280;6383;50.830;7.210;2022-09-12T13:31:01;100582.19;;;25.21;44.26
12636;BME280;6383;50.830;7.210;2022-09-12T13:33:35;100589.38;;;25.22;43.28
12636;BME280;6383;50.830;7.210;2022-09-12T13:36:26;100590.16;;;25.19;44.48
12636;BME280;6383;50.830;7.210;2022-09-12T13:39:11;100593.34;;;25.00;45.85
12636;BME280;6383;50.830;7.210;2022-09-12T13:44:41;100577.81;;;25.20;43.85
12636;BME280;6383;50.830;7.210;2022-09-12T13:47:17;100581.38;;;25.24;44.13
12636;BME280;6383;50.830;7.210;2022-09-12T13:49:48;100586.16;;;25.23;42.14
12636;BME280;6383;50.830;7.210;2022-09-12T13:52:20;100566.25;;;25.25;42.41
12636;BME280;6383;50.830;7.210;2022-09-12T13:54:53;100567.03;;;25.25;42.11
12636;BME280;6383;50.830;7.210;2022-09-12T13:57:30;100561.06;;;25.23;42.22
12636;BME280;6383;50.830;7.210;2022-09-12T14:00:05;100569.84;;;25.25;41.82
12636;BME280;6383;50.830;7.210;2022-09-12T14:02:35;100566.25;;;25.25;43.37
12636;BME280;6383;50.830;7.210;2022-09-12T14:05:12;100557.50;;;25.23;43.48
12636;BME280;6383;50.830;7.210;2022-09-12T14:07:50;100560.28;;;25.23;44.25
12636;BME280;6383;50.830;7.210;2022-09-12T14:10:31;100563.06;;;25.23;43.47
12636;BME280;6383;50.830;7.210;2022-09-12T14:13:02;100567.03;;;25.25;43.19
12636;BME280;6383;50.830;7.210;2022-09-12T14:15:34;100562.28;;;25.26;43.46
12636;BME280;6383;50.830;7.210;2022-09-12T14:18:05;100565.06;;;25.26;42.86
12636;BME280;6383;50.830;7.210;2022-09-12T14:20:36;100562.66;;;25.24;43.42
12636;BME280;6383;50.830;7.210;2022-09-12T14:23:13;100556.31;;;25.20;44.60
12636;BME280;6383;50.830;7.210;2022-09-12T14:25:48;100550.38;;;25.22;45.16
12636;BME280;6383;50.830;7.210;2022-09-12T14:28:19;100539.22;;;25.22;44.89
12636;BME280;6383;50.830;7.210;2022-09-12T14:31:00;100549.56;;;25.18;44.56
12636;BME280;6383;50.830;7.210;2022-09-12T14:33:32;100543.19;;;25.21;43.69
12636;BME280;6383;50.830;7.210;2022-09-12T14:36:09;100535.22;;;25.16;43.71
12636;BME280;6383;50.830;7.210;2022-09-12T14:38:41;100530.47;;;25.16;43.79
12636;BME280;6383;50.830;7.210;2022-09-12T14:41:20;100532.84;;;25.14;44.83
12636;BME280;6383;50.830;7.210;2022-09-12T14:43:53;100517.72;;;25.15;43.96
12636;BME280;6383;50.830;7.210;2022-09-12T14:46:25;100526.09;;;25.15;44.37
12636;BME280;6383;50.830;7.210;2022-09-12T14:48:58;100524.50;;;25.14;44.23
12636;BME280;6383;50.830;7.210;2022-09-12T14:51:32;100520.91;;;25.14;44.09
12636;BME280;6383;50.830;7.210;2022-09-12T14:54:03;100514.16;;;25.11;44.78
12636;BME280;6383;50.830;7.210;2022-09-12T14:56:39;100505.38;;;25.09;43.91
12636;BME280;6383;50.830;7.210;2022-09-12T14:59:24;100508.19;;;25.06;43.97
12636;BME280;6383;50.830;7.210;2022-09-12T15:02:25;100495.47;;;25.01;44.64
12636;BME280;6383;50.830;7.210;2022-09-12T15:05:15;100493.88;;;24.97;44.64
12636;BME280;6383;50.830;7.210;2022-09-12T15:07:52;100490.31;;;25.00;44.29
12636;BME280;6383;50.830;7.210;2022-09-12T15:10:25;100492.69;;;25.01;44.14
12636;BME280;6383;50.830;7.210;2022-09-12T15:13:17;100497.06;;;24.95;44.62
12636;BME280;6383;50.830;7.210;2022-09-12T15:15:49;100484.31;;;24.98;44.24
12636;BME280;6383;50.830;7.210;2022-09-12T15:18:19;100489.09;;;24.97;45.17
12636;BME280;6383;50.830;7.210;2022-09-12T15:20:51;100491.09;;;24.97;45.11
12636;BME280;6383;50.830;7.210;2022-09-12T15:23:33;100484.72;;;24.92;44.94
12636;BME280;6383;50.830;7.210;2022-09-12T15:26:03;100494.28;;;24.95;44.76
12636;BME280;6383;50.830;7.210;2022-09-12T15:28:32;100493.47;;;24.94;44.05
12636;BME280;6383;50.830;7.210;2022-09-12T15:31:05;100488.69;;;24.91;44.56
12636;BME280;6383;50.830;7.210;2022-09-12T15:33:35;100492.69;;;24.90;45.35
12636;BME280;6383;50.830;7.210;2022-09-12T15:36:04;100489.09;;;24.90;45.07
12636;BME280;6383;50.830;7.210;2022-09-12T15:38:39;100490.69;;;24.87;45.10